Charlotte, NC (28243)

7:07 PM EST on November 28, 2014 (GMT -0500)
Midtown | Change Station
CLOSE
Current Station
Personal Weather Station
Location: Charlotte, NC
Elevation: 650 ft
Nearby Weather Stations

Elev 650 ft 35.21 °N, 80.84 °W | Updated 59 seconds ago

Clear
Clear
37.8 °F
Feels Like 38 °F
N
0.0
Wind Variable Wind from SW
Gusts 10.0 mph

Today
High -- | Low -- °F
--% Chance of Precip.
Yesterday
High -- | Low -- °F
Precip. -- in
7:10 AM 5:11 PM
Waxing Crescent, 45% visible
Pressure 30.31 in
Visibility 10.0 miles
Clouds Few 25000 ft
Windchill 38 °F
Dew Point 25 °F
Humidity 60%
Rainfall 0.00 in
Snow Depth Not available.
UV 0.0 out of 12
Pollen .30 out of 12
Air Quality Not available.
Flu Activity Not available.
METAR KCLT 282352Z 19004KT 10SM FEW250 04/M07 A3030 RMK AO2 SLP264 T00391067 10083 20039 53005

More Conditions Fewer Conditions

Pressure 30.31 in
Visibility 10.0 miles
Clouds Few 25000 ft
Windchill 38 °F
Dew Point 25 °F
Humidity 60%
Rainfall 0.00 in
Snow Depth Not available.
UV 0.0 out of 12
Pollen .30 out of 12
Air Quality Not available.
Flu Activity Not available.
METAR KCLT 282352Z 19004KT 10SM FEW250 04/M07 A3030 RMK AO2 SLP264 T00391067 10083 20039 53005

More Conditions Fewer Conditions

10-Day Weather Forecast

Almanac

Astronomy

Nov. 28, 2014 Rise Set
Actual Time
Civil Twilight
Nautical Twilight
Astronomical Twilight
Moon
Length of Visible Light
Length of Day
Tomorrow will be .
, % of the Moon is Illuminated

Today's Extremes

State Highs State Lows

Community

WunderPhotos

Upload Photos

1,774,342 photos uploaded!

WunderBlogs® & News

Nearby

Air Quality

  Air Quality AQ Index Pollutant
Not available.

Snow Depth

Station Depth Elevation

Earthquake Activity

City Distance Mag. Time & Date
Minimum magnitude displayed is 2.5.

Coastal Water Temperatures

Place Temperature

Nearby Weather Stations